createdAt,value
2017-12-06T00:00:05.812Z,12.07
2017-12-06T00:02:33.428Z,12.40
2017-12-06T00:05:01.960Z,12.10
2017-12-06T00:07:29.520Z,11.10
2017-12-06T00:09:57.082Z,10.50
2017-12-06T00:12:32.978Z,10.30
2017-12-06T00:18:02.010Z,9.73
2017-12-06T00:20:29.608Z,8.43
2017-12-06T00:22:57.197Z,8.40
2017-12-06T00:25:24.794Z,10.67
2017-12-06T00:27:52.379Z,8.37
2017-12-06T00:30:19.931Z,8.40
2017-12-06T00:32:47.549Z,8.00
2017-12-06T00:35:15.108Z,8.87
2017-12-06T00:37:42.664Z,8.23
2017-12-06T00:40:10.240Z,8.10
2017-12-06T00:42:38.711Z,8.43
2017-12-06T00:45:06.269Z,8.47
2017-12-06T00:47:33.833Z,8.00
2017-12-06T00:50:01.390Z,8.83
2017-12-06T00:52:28.947Z,9.30
2017-12-06T00:54:56.507Z,9.03
2017-12-06T00:57:24.112Z,9.00
2017-12-06T00:59:51.716Z,8.53
2017-12-06T01:02:19.268Z,8.87
2017-12-06T01:04:46.820Z,8.90
2017-12-06T01:07:14.380Z,8.53
2017-12-06T01:09:41.936Z,8.20
2017-12-06T01:12:09.579Z,8.93
2017-12-06T01:14:37.512Z,9.00
2017-12-06T01:17:05.067Z,7.70
2017-12-06T01:19:32.742Z,7.93
2017-12-06T01:22:00.328Z,8.60
2017-12-06T01:24:28.807Z,8.70
2017-12-06T01:26:56.476Z,8.00
2017-12-06T01:29:24.039Z,10.23
2017-12-06T01:31:51.603Z,9.37
2017-12-06T01:34:19.167Z,10.23
2017-12-06T01:36:46.817Z,10.80
2017-12-06T01:39:14.480Z,10.67
2017-12-06T01:41:42.188Z,10.33
2017-12-06T01:44:09.746Z,8.63
2017-12-06T01:46:37.333Z,10.20
2017-12-06T01:49:04.894Z,9.77
2017-12-06T01:51:32.592Z,9.93
2017-12-06T01:54:01.016Z,10.10
2017-12-06T01:56:28.636Z,9.93
2017-12-06T01:58:57.320Z,10.10
2017-12-06T02:01:24.885Z,11.53
2017-12-06T02:03:52.451Z,12.77
2017-12-06T02:06:20.007Z,10.93
2017-12-06T02:08:48.256Z,11.87
2017-12-06T02:11:15.819Z,11.43
2017-12-06T02:13:43.367Z,10.47
2017-12-06T02:16:10.928Z,11.17
2017-12-06T02:18:38.488Z,10.70
2017-12-06T02:21:06.044Z,10.00
2017-12-06T02:23:33.609Z,10.67
2017-12-06T02:26:01.172Z,11.67
2017-12-06T02:28:28.732Z,10.97
2017-12-06T02:30:56.328Z,9.80
2017-12-06T02:33:24.829Z,10.87
2017-12-06T02:35:52.396Z,9.77
2017-12-06T02:38:20.830Z,9.87
2017-12-06T02:41:00.125Z,11.20
2017-12-06T02:43:39.408Z,9.83
2017-12-06T02:46:06.963Z,10.10
2017-12-06T02:48:34.548Z,10.60
2017-12-06T02:51:02.112Z,10.47
2017-12-06T02:53:29.663Z,8.53
2017-12-06T02:55:57.253Z,9.57
2017-12-06T02:58:24.858Z,10.60
2017-12-06T03:00:52.506Z,9.77
2017-12-06T03:03:20.099Z,9.60
2017-12-06T03:05:47.657Z,10.73
2017-12-06T03:08:15.216Z,9.70
2017-12-06T03:10:42.798Z,10.50
2017-12-06T03:13:10.368Z,11.57
2017-12-06T03:15:37.985Z,11.07
2017-12-06T03:18:05.586Z,10.53
2017-12-06T03:20:33.309Z,10.67
2017-12-06T03:23:00.868Z,10.23
2017-12-06T03:25:28.429Z,11.07
2017-12-06T03:27:56.140Z,10.70
2017-12-06T03:30:23.716Z,10.53
2017-12-06T03:32:51.356Z,9.13
2017-12-06T03:35:18.920Z,10.97
2017-12-06T03:37:46.541Z,11.10
2017-12-06T03:40:14.105Z,10.13
2017-12-06T03:42:41.665Z,10.93
2017-12-06T03:45:09.269Z,9.90
2017-12-06T03:47:36.829Z,10.30
2017-12-06T03:50:04.451Z,10.50
2017-12-06T03:52:32.044Z,10.40
2017-12-06T03:54:59.604Z,9.97
2017-12-06T03:57:27.164Z,10.13
2017-12-06T03:59:54.777Z,10.97
2017-12-06T04:02:22.335Z,11.77
2017-12-06T04:04:49.947Z,11.67
2017-12-06T04:07:17.553Z,11.50
2017-12-06T04:09:45.112Z,12.23
2017-12-06T04:12:12.669Z,12.70
2017-12-06T04:14:40.261Z,10.73
2017-12-06T04:17:07.841Z,13.30
2017-12-06T04:19:35.416Z,12.17
2017-12-06T04:22:02.976Z,13.00
2017-12-06T04:24:30.582Z,12.60
2017-12-06T04:26:58.143Z,12.70
2017-12-06T04:29:25.824Z,10.90
2017-12-06T04:31:53.382Z,12.40
2017-12-06T04:34:20.950Z,11.23
2017-12-06T04:36:48.544Z,11.40
2017-12-06T04:39:17.401Z,9.90
2017-12-06T04:41:44.992Z,12.60
2017-12-06T04:44:12.659Z,13.30
2017-12-06T04:46:40.228Z,11.73
2017-12-06T04:49:07.796Z,12.50
2017-12-06T04:51:35.445Z,12.63
2017-12-06T04:54:03.045Z,12.50
2017-12-06T04:56:30.630Z,12.33
2017-12-06T04:58:58.192Z,11.70
2017-12-06T05:01:25.752Z,10.50
2017-12-06T05:03:53.313Z,13.73
2017-12-06T05:06:20.896Z,12.67
2017-12-06T05:08:48.451Z,12.77
2017-12-06T05:11:16.055Z,11.30
2017-12-06T05:13:43.618Z,11.20
2017-12-06T05:16:11.181Z,13.17
2017-12-06T05:18:38.781Z,12.27
2017-12-06T05:21:06.340Z,11.77
2017-12-06T05:23:33.946Z,12.70
2017-12-06T05:26:01.596Z,11.53
2017-12-06T05:28:29.164Z,12.00
2017-12-06T05:30:56.747Z,13.33
2017-12-06T05:33:24.444Z,13.30
2017-12-06T05:35:52.548Z,12.50
2017-12-06T05:38:20.208Z,11.90
2017-12-06T05:40:47.859Z,12.33
2017-12-06T05:43:16.026Z,12.93
2017-12-06T05:45:43.629Z,11.37
2017-12-06T05:48:11.248Z,12.90
2017-12-06T05:50:38.845Z,11.47
2017-12-06T05:53:06.405Z,10.77
2017-12-06T05:55:33.966Z,11.30
2017-12-06T05:58:01.594Z,12.57
2017-12-06T06:00:29.156Z,10.47
2017-12-06T06:02:56.721Z,13.00
2017-12-06T06:05:24.287Z,11.43
2017-12-06T06:07:51.848Z,11.93
2017-12-06T06:10:19.462Z,11.90
2017-12-06T06:12:47.020Z,11.60
2017-12-06T06:15:14.579Z,11.53
2017-12-06T06:17:42.140Z,12.30
2017-12-06T06:20:09.700Z,12.90
2017-12-06T06:22:37.332Z,13.43
2017-12-06T06:25:04.892Z,13.20
2017-12-06T06:27:32.626Z,13.43
2017-12-06T06:30:00.244Z,13.00
2017-12-06T06:32:27.908Z,11.60
2017-12-06T06:34:55.500Z,10.70
2017-12-06T06:37:23.060Z,11.90
2017-12-06T06:39:50.618Z,12.30
2017-12-06T06:42:18.348Z,11.40
2017-12-06T06:44:45.906Z,11.50
2017-12-06T06:47:13.463Z,11.27
2017-12-06T06:49:41.023Z,11.63
2017-12-06T06:52:08.684Z,11.03
2017-12-06T06:54:36.283Z,11.40
2017-12-06T06:57:03.883Z,10.57
2017-12-06T06:59:31.472Z,11.13
2017-12-06T07:01:59.036Z,11.30
2017-12-06T07:04:26.597Z,10.30
2017-12-06T07:06:54.215Z,10.83
2017-12-06T07:09:21.772Z,10.67
2017-12-06T07:11:49.342Z,11.00
2017-12-06T07:14:16.932Z,10.30
2017-12-06T07:16:44.601Z,9.37
2017-12-06T07:19:12.159Z,10.23
2017-12-06T07:21:40.545Z,11.90
2017-12-06T07:24:08.108Z,11.90
2017-12-06T07:26:35.668Z,12.17
2017-12-06T07:29:03.229Z,10.97
2017-12-06T07:31:30.793Z,12.30
2017-12-06T07:33:58.350Z,12.97
2017-12-06T07:36:25.905Z,10.50
2017-12-06T07:38:53.460Z,14.20
2017-12-06T07:41:21.057Z,12.60
2017-12-06T07:43:48.616Z,12.77
2017-12-06T07:46:16.850Z,12.83
2017-12-06T07:48:44.710Z,12.97
2017-12-06T07:51:12.708Z,13.43
2017-12-06T07:53:41.638Z,12.93
2017-12-06T07:56:09.465Z,11.97
2017-12-06T07:58:42.497Z,14.30
2017-12-06T08:01:10.056Z,13.67
2017-12-06T08:03:37.617Z,13.60
2017-12-06T08:06:05.176Z,13.00
2017-12-06T08:08:32.792Z,12.10
2017-12-06T08:11:00.352Z,12.30
2017-12-06T08:13:27.922Z,13.87
2017-12-06T08:15:55.484Z,12.50
2017-12-06T08:18:23.115Z,13.13
2017-12-06T08:20:50.677Z,13.30
2017-12-06T08:23:18.272Z,13.27
2017-12-06T08:25:45.842Z,13.40
2017-12-06T08:28:13.444Z,17.73
2017-12-06T08:30:41.005Z,15.50
2017-12-06T08:33:08.601Z,13.70
2017-12-06T08:35:36.160Z,12.37
2017-12-06T08:38:03.796Z,12.70
2017-12-06T08:40:31.492Z,12.47
2017-12-06T08:42:59.064Z,13.40
2017-12-06T08:45:26.632Z,11.57
2017-12-06T08:47:54.280Z,11.90
2017-12-06T08:50:21.840Z,12.40
2017-12-06T08:52:49.427Z,14.97
2017-12-06T08:55:17.064Z,13.57
2017-12-06T08:57:44.656Z,13.13
2017-12-06T09:00:12.255Z,13.23
2017-12-06T09:02:39.850Z,13.60
2017-12-06T09:05:07.512Z,12.20
2017-12-06T09:07:35.075Z,12.50
2017-12-06T09:10:02.640Z,13.03
2017-12-06T09:12:30.296Z,11.50
2017-12-06T09:14:57.861Z,12.43
2017-12-06T09:17:25.456Z,12.77
2017-12-06T09:19:53.080Z,12.20
2017-12-06T09:22:20.672Z,13.03
2017-12-06T09:24:48.264Z,12.90
2017-12-06T09:27:15.865Z,11.47
2017-12-06T09:29:43.423Z,12.70
2017-12-06T09:32:10.986Z,12.50
2017-12-06T09:34:38.548Z,10.50
2017-12-06T09:37:06.104Z,12.40
2017-12-06T09:39:33.694Z,11.60
2017-12-06T09:42:01.328Z,11.30
2017-12-06T09:44:28.993Z,11.60
2017-12-06T09:46:56.548Z,12.00
2017-12-06T09:49:24.186Z,12.30
2017-12-06T09:51:51.776Z,13.40
2017-12-06T09:54:19.332Z,11.30
2017-12-06T09:56:46.889Z,11.10
2017-12-06T09:59:14.552Z,12.87
2017-12-06T10:01:42.220Z,10.27
2017-12-06T10:04:09.816Z,12.53
2017-12-06T10:06:37.410Z,11.80
2017-12-06T10:09:05.004Z,10.10
2017-12-06T10:11:32.638Z,11.47
2017-12-06T10:13:59.548Z,10.30
2017-12-06T10:16:27.149Z,11.20
2017-12-06T10:18:54.841Z,11.57
2017-12-06T10:21:22.436Z,10.77
2017-12-06T10:23:50.001Z,11.10
2017-12-06T10:26:17.625Z,9.70
2017-12-06T10:28:45.184Z,10.53
2017-12-06T10:31:12.785Z,11.40
2017-12-06T10:33:40.346Z,11.70
2017-12-06T10:36:07.969Z,10.53
2017-12-06T10:38:35.532Z,11.57
2017-12-06T10:41:03.189Z,11.07
2017-12-06T10:43:30.753Z,10.63
2017-12-06T10:45:58.316Z,11.20
2017-12-06T10:48:25.917Z,10.00
2017-12-06T10:50:53.480Z,10.47
2017-12-06T10:53:21.041Z,10.63
2017-12-06T10:55:48.596Z,10.73
2017-12-06T10:58:16.157Z,10.93
2017-12-06T11:00:43.781Z,11.00
2017-12-06T11:03:11.508Z,10.77
2017-12-06T11:05:39.068Z,10.47
2017-12-06T11:08:06.631Z,9.53
2017-12-06T11:10:34.190Z,11.43
2017-12-06T11:13:01.757Z,11.27
2017-12-06T11:15:29.316Z,10.00
2017-12-06T11:18:00.762Z,11.57
2017-12-06T11:20:31.221Z,9.37
2017-12-06T11:23:08.465Z,10.63
2017-12-06T11:25:36.074Z,10.30
2017-12-06T11:28:03.670Z,11.43
2017-12-06T11:30:31.300Z,8.70
2017-12-06T11:32:58.869Z,11.63
2017-12-06T11:35:26.434Z,11.80
2017-12-06T11:37:53.998Z,11.20
2017-12-06T11:40:22.630Z,10.50
2017-12-06T11:42:50.192Z,10.80
2017-12-06T11:45:17.754Z,10.90
2017-12-06T11:47:45.450Z,11.70
2017-12-06T11:50:13.118Z,11.97
2017-12-06T11:52:40.782Z,10.73
2017-12-06T11:55:08.341Z,11.43
2017-12-06T11:57:35.899Z,11.07
2017-12-06T12:00:03.461Z,11.77
2017-12-06T12:02:31.057Z,10.80
2017-12-06T12:04:58.687Z,12.43
2017-12-06T12:07:26.376Z,10.90
2017-12-06T12:09:53.933Z,11.30
2017-12-06T12:12:21.579Z,11.77
2017-12-06T12:14:49.141Z,11.23
2017-12-06T12:17:16.708Z,11.37
2017-12-06T12:19:44.288Z,12.00
2017-12-06T12:22:11.845Z,11.87
2017-12-06T12:24:39.450Z,11.17
2017-12-06T12:27:07.014Z,13.07
2017-12-06T12:29:34.569Z,10.13
2017-12-06T12:32:02.130Z,11.60
2017-12-06T12:34:29.722Z,11.83
2017-12-06T12:36:57.281Z,11.30
2017-12-06T12:39:24.944Z,12.40
2017-12-06T12:41:52.546Z,12.10
2017-12-06T12:44:20.161Z,12.27
2017-12-06T12:46:47.754Z,13.43
2017-12-06T12:49:15.389Z,11.20
2017-12-06T12:51:42.990Z,12.40
2017-12-06T12:54:10.582Z,12.77
2017-12-06T12:56:38.184Z,12.10
2017-12-06T12:59:05.832Z,12.50
2017-12-06T13:01:33.422Z,12.93
2017-12-06T13:04:01.024Z,12.83
2017-12-06T13:06:28.718Z,11.40
2017-12-06T13:08:56.281Z,12.77
2017-12-06T13:11:23.952Z,12.63
2017-12-06T13:13:51.553Z,13.10
2017-12-06T13:16:19.169Z,12.87
2017-12-06T13:18:46.734Z,12.57
2017-12-06T13:21:14.328Z,13.50
2017-12-06T13:23:41.958Z,12.47
2017-12-06T13:26:09.521Z,12.80
2017-12-06T13:28:37.181Z,11.90
2017-12-06T13:31:04.842Z,13.10
2017-12-06T13:33:32.406Z,13.50
2017-12-06T13:35:59.973Z,13.50
2017-12-06T13:38:27.623Z,13.90
2017-12-06T13:40:55.217Z,12.97
2017-12-06T13:43:22.846Z,12.87
2017-12-06T13:45:50.510Z,13.53
2017-12-06T13:48:18.176Z,14.00
2017-12-06T13:50:45.736Z,13.13
2017-12-06T13:53:13.303Z,14.10
2017-12-06T13:55:40.877Z,12.93
2017-12-06T13:58:08.442Z,13.67
2017-12-06T14:00:36.082Z,8.20
2017-12-06T14:03:03.646Z,10.77
2017-12-06T14:05:31.212Z,13.33
2017-12-06T14:07:58.862Z,13.43
2017-12-06T14:10:26.420Z,12.70
2017-12-06T14:12:54.014Z,12.80
2017-12-06T14:15:21.644Z,14.23
2017-12-06T14:17:49.237Z,14.80
2017-12-06T14:20:16.870Z,13.70
2017-12-06T14:22:44.431Z,12.30
2017-12-06T14:25:11.992Z,12.43
2017-12-06T14:27:39.558Z,12.80
2017-12-06T14:30:07.213Z,13.20
2017-12-06T14:32:34.772Z,12.80
2017-12-06T14:35:02.340Z,11.73
2017-12-06T14:37:29.900Z,14.60
2017-12-06T14:39:57.498Z,13.93
2017-12-06T14:42:25.120Z,12.00
2017-12-06T14:44:52.684Z,13.67
2017-12-06T14:47:20.245Z,13.50
2017-12-06T14:49:47.809Z,12.97
2017-12-06T14:52:15.469Z,12.17
2017-12-06T14:54:43.035Z,12.87
2017-12-06T14:57:10.698Z,12.27
2017-12-06T14:59:38.357Z,13.60
2017-12-06T15:02:06.017Z,13.87
2017-12-06T15:04:33.622Z,12.90
2017-12-06T15:07:01.244Z,13.50
2017-12-06T15:09:28.909Z,12.53
2017-12-06T15:11:56.464Z,10.77
2017-12-06T15:14:24.038Z,11.20
2017-12-06T15:16:51.602Z,12.40
2017-12-06T15:19:19.169Z,11.23
2017-12-06T15:21:46.744Z,11.53
2017-12-06T15:24:14.303Z,12.40
2017-12-06T15:26:41.929Z,10.50
2017-12-06T15:29:09.533Z,10.80
2017-12-06T15:31:37.149Z,11.60
2017-12-06T15:34:04.820Z,10.30
2017-12-06T15:36:32.380Z,12.73
2017-12-06T15:39:00.042Z,10.87
2017-12-06T15:41:27.605Z,12.03
2017-12-06T15:43:55.261Z,12.07
2017-12-06T15:46:22.822Z,12.33
2017-12-06T15:48:50.489Z,12.80
2017-12-06T15:51:18.089Z,11.80
2017-12-06T15:53:45.714Z,11.50
2017-12-06T15:56:13.274Z,13.67
2017-12-06T15:58:40.834Z,12.83
2017-12-06T16:01:08.428Z,13.13
2017-12-06T16:03:35.988Z,12.87
2017-12-06T16:06:03.583Z,12.77
2017-12-06T16:08:31.172Z,12.30
2017-12-06T16:10:58.841Z,12.97
2017-12-06T16:13:26.436Z,10.97
2017-12-06T16:15:53.994Z,13.10
2017-12-06T16:18:21.587Z,12.10
2017-12-06T16:20:49.147Z,12.30
2017-12-06T16:23:16.746Z,10.87
2017-12-06T16:25:44.309Z,12.40
2017-12-06T16:28:11.912Z,11.93
2017-12-06T16:30:39.477Z,11.53
2017-12-06T16:33:07.088Z,10.50
2017-12-06T16:35:46.520Z,10.73
2017-12-06T16:38:14.192Z,12.93
2017-12-06T16:40:41.754Z,10.50
2017-12-06T16:43:09.322Z,11.90
2017-12-06T16:45:36.976Z,10.93
2017-12-06T16:48:04.537Z,10.53
2017-12-06T16:50:32.101Z,11.90
2017-12-06T16:52:59.661Z,9.57
2017-12-06T16:55:27.221Z,10.37
2017-12-06T16:57:54.875Z,10.10
2017-12-06T17:00:22.460Z,10.57
2017-12-06T17:02:50.101Z,9.90
2017-12-06T17:05:17.670Z,10.47
2017-12-06T17:07:45.229Z,9.90
2017-12-06T17:10:12.780Z,9.00
2017-12-06T17:12:40.338Z,9.73
2017-12-06T17:15:07.901Z,9.93
2017-12-06T17:17:35.457Z,9.27
2017-12-06T17:20:03.009Z,9.10
2017-12-06T17:22:30.566Z,10.20
2017-12-06T17:24:58.156Z,9.80
2017-12-06T17:27:25.810Z,8.63
2017-12-06T17:30:04.997Z,8.33
2017-12-06T17:32:32.552Z,8.23
2017-12-06T17:35:00.111Z,8.63
2017-12-06T17:37:27.669Z,8.23
2017-12-06T17:39:55.295Z,8.77
2017-12-06T17:42:22.852Z,8.53
2017-12-06T17:44:50.408Z,8.70
2017-12-06T17:47:17.973Z,10.20
2017-12-06T17:49:45.574Z,10.33
2017-12-06T17:52:13.193Z,11.10
2017-12-06T17:54:40.939Z,10.43
2017-12-06T17:57:08.492Z,8.80
2017-12-06T17:59:36.089Z,8.93
2017-12-06T18:02:03.648Z,10.30
2017-12-06T18:04:31.248Z,9.20
2017-12-06T18:06:58.788Z,9.40
2017-12-06T18:09:26.348Z,8.50
2017-12-06T18:11:53.912Z,9.73
2017-12-06T18:14:21.545Z,9.60
2017-12-06T18:16:49.209Z,9.60
2017-12-06T18:19:16.793Z,8.83
2017-12-06T18:21:45.199Z,10.10
2017-12-06T18:24:12.816Z,10.10
2017-12-06T18:26:40.373Z,8.90
2017-12-06T18:29:08.043Z,8.10
2017-12-06T18:31:35.596Z,8.07
2017-12-06T18:34:03.153Z,8.10
2017-12-06T18:36:30.712Z,8.40
2017-12-06T18:38:58.393Z,8.20
2017-12-06T18:41:25.957Z,8.70
2017-12-06T18:43:53.516Z,9.33
2017-12-06T18:46:21.079Z,9.47
2017-12-06T18:48:48.636Z,8.37
2017-12-06T18:51:16.198Z,8.80
2017-12-06T18:53:43.852Z,7.93
2017-12-06T18:56:11.508Z,8.37
2017-12-06T18:58:39.068Z,8.50
2017-12-06T19:01:06.734Z,8.47
2017-12-06T19:03:34.410Z,9.10
2017-12-06T19:06:02.057Z,9.17
2017-12-06T19:08:29.720Z,9.00
2017-12-06T19:10:57.279Z,8.13
2017-12-06T19:13:24.831Z,8.00
2017-12-06T19:15:52.408Z,8.63
2017-12-06T19:18:19.968Z,8.93
2017-12-06T19:20:47.634Z,7.20
2017-12-06T19:23:15.192Z,7.23
2017-12-06T19:25:42.752Z,8.97
2017-12-06T19:28:10.317Z,7.43
2017-12-06T19:30:37.887Z,8.70
2017-12-06T19:33:05.440Z,8.13
2017-12-06T19:35:32.998Z,7.80
2017-12-06T19:38:00.559Z,7.50
2017-12-06T19:40:28.115Z,7.23
2017-12-06T19:42:55.782Z,6.97
2017-12-06T19:45:23.336Z,7.47
2017-12-06T19:47:51.976Z,9.00
2017-12-06T19:50:19.588Z,7.90
2017-12-06T19:52:47.244Z,7.43
2017-12-06T19:55:14.913Z,7.03
2017-12-06T19:57:42.473Z,6.60
2017-12-06T20:00:10.029Z,8.20
2017-12-06T20:02:37.596Z,7.70
2017-12-06T20:05:05.272Z,6.43
2017-12-06T20:07:33.389Z,8.07
2017-12-06T20:10:00.950Z,6.70
2017-12-06T20:12:28.503Z,7.30
2017-12-06T20:14:56.061Z,6.57
2017-12-06T20:17:23.616Z,7.17
2017-12-06T20:19:51.168Z,6.93
2017-12-06T20:22:18.724Z,7.13
2017-12-06T20:24:46.276Z,6.33
2017-12-06T20:27:13.841Z,8.23
2017-12-06T20:29:41.408Z,6.40
2017-12-06T20:32:09.043Z,6.10
2017-12-06T20:34:36.596Z,6.07
2017-12-06T20:37:04.257Z,6.20
2017-12-06T20:39:31.877Z,5.87
2017-12-06T20:41:59.484Z,6.83
2017-12-06T20:44:27.037Z,5.97
2017-12-06T20:46:54.671Z,5.43
2017-12-06T20:49:22.227Z,6.33
2017-12-06T20:51:49.825Z,5.70
2017-12-06T20:54:17.387Z,7.33
2017-12-06T20:56:44.949Z,5.90
2017-12-06T20:59:12.497Z,6.30
2017-12-06T21:01:40.053Z,7.00
2017-12-06T21:04:07.608Z,7.10
2017-12-06T21:06:35.192Z,5.93
2017-12-06T21:09:02.810Z,6.03
2017-12-06T21:11:30.333Z,5.90
2017-12-06T21:13:57.974Z,5.90
2017-12-06T21:16:25.530Z,6.13
2017-12-06T21:18:53.100Z,6.47
2017-12-06T21:21:20.756Z,6.67
2017-12-06T21:23:48.308Z,7.50
2017-12-06T21:26:15.880Z,6.00
2017-12-06T21:28:43.431Z,5.70
2017-12-06T21:31:10.980Z,6.67
2017-12-06T21:33:38.538Z,6.53
2017-12-06T21:36:06.124Z,6.50
2017-12-06T21:38:33.682Z,5.83
2017-12-06T21:41:01.304Z,5.80
2017-12-06T21:43:29.005Z,7.33
2017-12-06T21:45:56.556Z,5.87
2017-12-06T21:48:24.109Z,5.67
2017-12-06T21:50:51.660Z,6.00
2017-12-06T21:53:19.217Z,6.67
2017-12-06T21:55:46.775Z,5.07
2017-12-06T21:58:14.330Z,5.70
2017-12-06T22:00:41.880Z,6.27
2017-12-06T22:03:09.492Z,5.30
2017-12-06T22:05:37.156Z,6.00
2017-12-06T22:08:04.819Z,5.70
2017-12-06T22:10:32.399Z,5.60
2017-12-06T22:12:59.959Z,6.17
2017-12-06T22:15:27.557Z,5.23
2017-12-06T22:17:55.122Z,5.23
2017-12-06T22:20:22.690Z,6.00
2017-12-06T22:22:50.285Z,6.80
2017-12-06T22:25:17.944Z,5.00
2017-12-06T22:27:45.496Z,5.73
2017-12-06T22:30:13.068Z,4.77
2017-12-06T22:32:40.733Z,5.60
2017-12-06T22:35:08.389Z,5.00
2017-12-06T22:37:35.976Z,5.00
2017-12-06T22:40:03.528Z,5.90
2017-12-06T22:42:31.174Z,5.97
2017-12-06T22:45:10.704Z,5.40
2017-12-06T22:47:38.305Z,5.47
2017-12-06T22:50:05.856Z,5.60
2017-12-06T22:52:33.504Z,5.30
2017-12-06T22:55:01.049Z,5.67
2017-12-06T22:57:28.629Z,5.90
2017-12-06T22:59:56.284Z,5.40
2017-12-06T23:02:23.833Z,5.60
2017-12-06T23:04:51.384Z,6.00
2017-12-06T23:07:18.969Z,4.93
2017-12-06T23:09:46.521Z,5.27
2017-12-06T23:12:14.105Z,5.83
2017-12-06T23:14:41.692Z,4.90
2017-12-06T23:17:09.251Z,4.47
2017-12-06T23:19:36.841Z,6.20
2017-12-06T23:22:04.541Z,4.70
2017-12-06T23:24:32.102Z,4.67
2017-12-06T23:26:59.685Z,5.20
2017-12-06T23:29:27.320Z,4.37
2017-12-06T23:31:54.868Z,5.30
2017-12-06T23:34:22.417Z,5.17
2017-12-06T23:36:50.014Z,4.70
2017-12-06T23:39:17.618Z,4.93
2017-12-06T23:41:45.145Z,5.17
2017-12-06T23:44:12.700Z,4.67
2017-12-06T23:46:40.249Z,5.30
2017-12-06T23:49:07.904Z,5.37
2017-12-06T23:51:35.457Z,5.63
2017-12-06T23:54:03.009Z,7.13
2017-12-06T23:56:30.560Z,6.43
2017-12-06T23:58:58.166Z,6.30
